createdAt,value
2022-08-18T00:01:16.632Z,4.75
2022-08-18T00:03:56.795Z,4.95
2022-08-18T00:06:29.522Z,4.78
2022-08-18T00:09:04.078Z,4.93
2022-08-18T00:11:41.290Z,3.75
2022-08-18T00:14:21.191Z,3.87
2022-08-18T00:16:52.697Z,4.03
2022-08-18T00:19:20.684Z,4.60
2022-08-18T00:22:08.732Z,4.15
2022-08-18T00:24:47.651Z,4.25
2022-08-18T00:27:28.479Z,4.03
2022-08-18T00:30:00.813Z,3.88
2022-08-18T00:32:33.887Z,4.40
2022-08-18T00:35:13.754Z,3.97
2022-08-18T00:37:42.226Z,4.25
2022-08-18T00:40:14.239Z,4.72
2022-08-18T00:42:48.304Z,3.92
2022-08-18T00:45:22.002Z,4.57
2022-08-18T00:47:49.203Z,4.22
2022-08-18T00:50:28.695Z,4.30
2022-08-18T00:53:34.886Z,4.53
2022-08-18T00:56:11.380Z,4.53
2022-08-18T00:58:49.191Z,4.78
2022-08-18T01:01:19.371Z,5.03
2022-08-18T01:03:53.103Z,4.18
2022-08-18T01:06:52.465Z,4.57
2022-08-18T01:09:19.599Z,4.25
2022-08-18T01:11:51.510Z,4.10
2022-08-18T01:14:19.744Z,4.78
2022-08-18T01:17:08.636Z,4.43
2022-08-18T01:19:55.692Z,5.60
2022-08-18T01:22:41.247Z,4.63
2022-08-18T01:25:28.073Z,5.03
2022-08-18T01:27:59.776Z,4.85
2022-08-18T01:30:29.901Z,4.53
2022-08-18T01:32:58.690Z,4.65
2022-08-18T01:35:27.753Z,4.28
2022-08-18T01:37:55.552Z,4.85
2022-08-18T01:41:17.511Z,4.20
2022-08-18T01:43:13.425Z,4.55
2022-08-18T01:45:42.195Z,4.63
2022-08-18T01:48:09.671Z,5.18
2022-08-18T01:50:39.935Z,4.72
2022-08-18T01:53:09.383Z,4.88
2022-08-18T01:55:39.140Z,4.20
2022-08-18T01:58:08.111Z,4.78
2022-08-18T02:00:36.678Z,5.07
2022-08-18T02:03:10.146Z,4.68
2022-08-18T02:05:49.200Z,5.07
2022-08-18T02:08:17.008Z,5.18
2022-08-18T02:10:44.264Z,5.00
2022-08-18T02:13:11.402Z,4.93
2022-08-18T02:15:38.601Z,4.63
2022-08-18T02:18:32.513Z,5.60
2022-08-18T02:21:15.911Z,5.45
2022-08-18T02:23:53.635Z,5.05
2022-08-18T02:26:22.304Z,5.07
2022-08-18T02:28:50.163Z,5.00
2022-08-18T02:31:22.888Z,5.45
2022-08-18T02:33:52.336Z,4.78
2022-08-18T02:36:21.531Z,4.65
2022-08-18T02:38:59.223Z,4.43
2022-08-18T02:41:31.241Z,4.63
2022-08-18T02:43:59.031Z,4.78
2022-08-18T02:46:30.148Z,4.70
2022-08-18T02:48:57.971Z,5.25
2022-08-18T02:51:25.769Z,4.97
2022-08-18T02:53:54.277Z,4.95
2022-08-18T02:56:40.527Z,5.43
2022-08-18T02:59:16.955Z,5.50
2022-08-18T03:01:49.143Z,5.07
2022-08-18T03:04:29.218Z,4.90
2022-08-18T03:07:01.654Z,5.45
2022-08-18T03:09:30.538Z,4.93
2022-08-18T03:11:58.385Z,5.13
2022-08-18T03:14:26.039Z,5.20
2022-08-18T03:16:55.279Z,5.10
2022-08-18T03:19:28.847Z,5.50
2022-08-18T03:22:02.758Z,5.57
2022-08-18T03:24:32.717Z,5.32
2022-08-18T03:27:04.204Z,4.95
2022-08-18T03:29:32.911Z,5.32
2022-08-18T03:32:03.920Z,4.93
2022-08-18T03:34:32.356Z,5.28
2022-08-18T03:36:59.724Z,5.20
2022-08-18T03:39:28.472Z,6.03
2022-08-18T03:42:00.943Z,5.30
2022-08-18T03:47:09.661Z,5.15
2022-08-18T03:49:37.956Z,5.22
2022-08-18T03:52:09.431Z,5.80
2022-08-18T03:54:38.966Z,5.38
2022-08-18T03:59:54.874Z,5.30
2022-08-18T04:02:21.929Z,6.20
2022-08-18T04:04:49.671Z,5.50
2022-08-18T04:07:18.972Z,5.85
2022-08-18T04:09:46.183Z,6.72
2022-08-18T04:12:17.292Z,7.20
2022-08-18T04:14:49.551Z,5.95
2022-08-18T04:17:24.875Z,8.63
2022-08-18T04:19:54.845Z,8.63
2022-08-18T04:22:23.349Z,7.22
2022-08-18T04:24:50.862Z,7.30
2022-08-18T04:27:22.565Z,6.75
2022-08-18T04:29:50.852Z,6.20
2022-08-18T04:32:19.455Z,5.90
2022-08-18T04:34:46.618Z,6.40
2022-08-18T04:37:15.517Z,6.32
2022-08-18T04:39:49.009Z,5.68
2022-08-18T04:42:16.452Z,6.13
2022-08-18T04:44:43.828Z,5.68
2022-08-18T04:47:12.676Z,6.90
2022-08-18T04:49:40.014Z,5.63
2022-08-18T04:52:40.175Z,6.15
2022-08-18T04:55:09.609Z,5.93
2022-08-18T04:57:36.781Z,6.55
2022-08-18T05:00:07.021Z,6.25
2022-08-18T05:02:35.060Z,6.68
2022-08-18T05:05:03.889Z,5.85
2022-08-18T05:07:31.701Z,6.25
2022-08-18T05:09:58.974Z,5.65
2022-08-18T05:12:26.788Z,5.78
2022-08-18T05:14:57.674Z,6.10
2022-08-18T05:17:29.933Z,5.70
2022-08-18T05:20:02.080Z,6.32
2022-08-18T05:22:31.303Z,5.75
2022-08-18T05:27:46.694Z,6.45
2022-08-18T05:30:17.017Z,6.45
2022-08-18T05:32:50.020Z,6.70
2022-08-18T05:35:30.787Z,6.75
2022-08-18T05:38:37.854Z,6.13
2022-08-18T05:41:34.656Z,6.15
2022-08-18T05:44:02.715Z,6.57
2022-08-18T05:46:43.224Z,6.18
2022-08-18T05:49:13.212Z,6.45
2022-08-18T05:51:52.220Z,6.63
2022-08-18T05:54:40.187Z,6.10
2022-08-18T05:57:21.833Z,5.88
2022-08-18T05:59:52.351Z,5.60
2022-08-18T06:02:52.994Z,6.03
2022-08-18T06:06:02.457Z,5.32
2022-08-18T06:08:40.645Z,6.32
2022-08-18T06:11:08.102Z,5.95
2022-08-18T06:13:59.538Z,5.53
2022-08-18T06:16:39.051Z,6.32
2022-08-18T06:20:03.978Z,6.15
2022-08-18T06:22:59.718Z,5.43
2022-08-18T06:25:55.393Z,5.15
2022-08-18T06:28:59.092Z,5.38
2022-08-18T06:32:01.321Z,5.78
2022-08-18T06:34:42.602Z,6.28
2022-08-18T06:37:58.100Z,5.22
2022-08-18T06:40:34.884Z,4.78
2022-08-18T06:43:02.407Z,5.43
2022-08-18T06:45:39.968Z,5.72
2022-08-18T06:48:32.965Z,5.75
2022-08-18T06:51:03.026Z,5.68
2022-08-18T06:54:04.906Z,5.22
2022-08-18T06:56:40.538Z,4.70
2022-08-18T06:59:24.484Z,5.43
2022-08-18T07:02:39.546Z,5.35
2022-08-18T07:05:29.731Z,4.75
2022-08-18T07:08:20.432Z,4.82
2022-08-18T07:10:51.537Z,5.88
2022-08-18T07:13:30.093Z,5.15
2022-08-18T07:16:40.552Z,5.90
2022-08-18T07:19:16.659Z,5.05
2022-08-18T07:22:09.286Z,5.18
2022-08-18T07:24:45.032Z,4.20
2022-08-18T07:27:42.935Z,4.40
2022-08-18T07:30:15.447Z,4.43
2022-08-18T07:32:54.271Z,4.68
2022-08-18T07:35:49.535Z,4.53
2022-08-18T07:38:43.117Z,4.47
2022-08-18T07:41:24.210Z,4.70
2022-08-18T07:44:23.786Z,4.60
2022-08-18T07:47:13.081Z,5.38
2022-08-18T07:50:13.404Z,4.65
2022-08-18T07:52:59.604Z,4.95
2022-08-18T07:55:33.413Z,4.30
2022-08-18T07:58:49.046Z,5.30
2022-08-18T08:01:50.132Z,4.15
2022-08-18T08:04:53.393Z,4.38
2022-08-18T08:07:47.540Z,5.00
2022-08-18T08:10:51.676Z,4.75
2022-08-18T08:14:00.705Z,4.20
2022-08-18T08:16:51.250Z,4.70
2022-08-18T08:19:59.944Z,4.60
2022-08-18T08:22:32.210Z,4.38
2022-08-18T08:25:42.705Z,5.93
2022-08-18T08:28:56.303Z,4.78
2022-08-18T08:32:02.482Z,4.63
2022-08-18T08:34:49.210Z,5.00
2022-08-18T08:38:22.951Z,4.88
2022-08-18T08:41:03.440Z,5.40
2022-08-18T08:43:45.401Z,5.18
2022-08-18T08:46:30.075Z,4.32
2022-08-18T08:49:06.161Z,4.80
2022-08-18T08:51:39.274Z,5.00
2022-08-18T08:54:23.428Z,5.00
2022-08-18T08:56:55.361Z,4.72
2022-08-18T09:03:16.819Z,4.82
2022-08-18T09:05:57.283Z,4.25
2022-08-18T09:08:42.907Z,4.18
2022-08-18T09:11:31.211Z,3.80
2022-08-18T09:14:14.932Z,4.18
2022-08-18T09:17:11.913Z,5.68
2022-08-18T09:19:45.126Z,4.88
2022-08-18T09:22:54.894Z,4.75
2022-08-18T09:25:40.011Z,5.22
2022-08-18T09:28:36.531Z,4.93
2022-08-18T09:31:09.019Z,4.75
2022-08-18T09:33:45.756Z,4.22
2022-08-18T09:37:03.611Z,4.60
2022-08-18T09:40:10.975Z,4.53
2022-08-18T09:42:57.605Z,4.30
2022-08-18T09:45:33.623Z,4.55
2022-08-18T09:48:12.994Z,4.13
2022-08-18T09:51:17.562Z,4.13
2022-08-18T09:53:52.518Z,4.70
2022-08-18T09:57:05.274Z,3.67
2022-08-18T09:59:38.103Z,3.95
2022-08-18T10:02:18.782Z,4.72
2022-08-18T10:04:53.992Z,4.28
2022-08-18T10:07:43.497Z,3.85
2022-08-18T10:11:00.548Z,4.93
2022-08-18T10:14:07.211Z,4.25
2022-08-18T10:20:48.397Z,4.20
2022-08-18T10:26:55.608Z,4.30
2022-08-18T10:29:34.328Z,3.88
2022-08-18T10:32:01.332Z,3.83
2022-08-18T10:34:55.486Z,4.28
2022-08-18T10:37:46.390Z,4.05
2022-08-18T10:40:26.660Z,4.15
2022-08-18T10:46:46.597Z,4.07
2022-08-18T10:52:27.967Z,3.90
2022-08-18T10:55:47.734Z,4.40
2022-08-18T10:58:21.288Z,3.75
2022-08-18T11:01:06.177Z,3.90
2022-08-18T11:03:56.331Z,4.50
2022-08-18T11:06:26.256Z,3.70
2022-08-18T11:09:01.573Z,3.75
2022-08-18T11:11:52.751Z,3.15
2022-08-18T11:15:00.451Z,2.83
2022-08-18T11:18:03.118Z,3.83
2022-08-18T11:20:34.935Z,3.70
2022-08-18T11:23:03.779Z,3.13
2022-08-18T11:25:35.796Z,3.63
2022-08-18T11:28:20.327Z,3.55
2022-08-18T11:30:55.648Z,3.58
2022-08-18T11:33:24.464Z,3.55
2022-08-18T11:36:01.339Z,3.90
2022-08-18T11:38:31.774Z,3.80
2022-08-18T11:44:31.784Z,4.15
2022-08-18T11:47:18.345Z,3.72
2022-08-18T11:50:12.936Z,3.55
2022-08-18T11:52:53.901Z,3.67
2022-08-18T11:55:31.850Z,3.80
2022-08-18T11:58:00.447Z,3.15
2022-08-18T12:00:42.983Z,3.55
2022-08-18T12:03:20.240Z,4.25
2022-08-18T12:09:04.197Z,2.83
2022-08-18T12:14:35.524Z,3.63
2022-08-18T12:17:07.861Z,3.17
2022-08-18T12:19:35.411Z,3.15
2022-08-18T12:22:13.465Z,3.55
2022-08-18T12:24:41.509Z,3.28
2022-08-18T12:30:16.638Z,3.53
2022-08-18T12:32:50.698Z,3.03
2022-08-18T12:35:23.593Z,2.65
2022-08-18T12:38:04.995Z,2.80
2022-08-18T12:40:40.610Z,3.00
2022-08-18T12:43:11.043Z,2.58
2022-08-18T12:45:39.064Z,3.80
2022-08-18T12:48:09.940Z,2.80
2022-08-18T12:53:29.905Z,2.90
2022-08-18T12:56:30.310Z,3.33
2022-08-18T12:59:06.972Z,2.70
2022-08-18T13:01:38.220Z,2.92
2022-08-18T13:04:12.967Z,2.40
2022-08-18T13:07:00.061Z,2.50
2022-08-18T13:09:34.573Z,2.25
2022-08-18T13:12:19.693Z,2.53
2022-08-18T13:14:50.998Z,2.67
2022-08-18T13:17:30.508Z,3.53
2022-08-18T13:20:07.604Z,2.92
2022-08-18T13:22:41.991Z,3.20
2022-08-18T13:25:32.025Z,2.72
2022-08-18T13:28:04.619Z,2.30
2022-08-18T13:30:35.490Z,2.92
2022-08-18T13:33:06.059Z,2.65
2022-08-18T13:35:54.498Z,2.30
2022-08-18T13:38:27.123Z,2.50
2022-08-18T13:41:04.031Z,2.70
2022-08-18T13:43:39.258Z,2.67
2022-08-18T13:46:09.301Z,2.63
2022-08-18T13:48:37.940Z,3.17
2022-08-18T13:51:14.311Z,2.50
2022-08-18T13:53:50.909Z,2.08
2022-08-18T13:56:31.224Z,3.30
2022-08-18T13:58:59.246Z,2.37
2022-08-18T14:01:51.525Z,2.13
2022-08-18T14:04:14.933Z,2.50
2022-08-18T14:06:56.174Z,2.88
2022-08-18T14:09:27.777Z,2.15
2022-08-18T14:12:23.252Z,2.13
2022-08-18T14:14:55.714Z,2.00
2022-08-18T14:17:25.845Z,2.40
2022-08-18T14:20:15.154Z,2.75
2022-08-18T14:23:14.209Z,2.20
2022-08-18T14:26:08.665Z,2.22
2022-08-18T14:28:36.022Z,2.50
2022-08-18T14:31:07.079Z,1.95
2022-08-18T14:33:50.783Z,2.47
2022-08-18T14:36:20.297Z,2.33
2022-08-18T14:38:59.210Z,2.10
2022-08-18T14:41:31.461Z,2.22
2022-08-18T14:44:12.263Z,1.98
2022-08-18T14:46:54.087Z,2.40
2022-08-18T14:49:28.687Z,2.30
2022-08-18T14:52:00.300Z,1.83
2022-08-18T14:54:29.998Z,2.20
2022-08-18T14:57:00.917Z,2.17
2022-08-18T14:59:30.827Z,2.88
2022-08-18T15:02:13.429Z,2.08
2022-08-18T15:04:56.439Z,2.20
2022-08-18T15:07:26.160Z,2.10
2022-08-18T15:10:15.622Z,2.05
2022-08-18T15:12:44.737Z,2.10
2022-08-18T15:15:16.770Z,2.40
2022-08-18T15:17:50.475Z,2.20
2022-08-18T15:23:22.637Z,2.42
2022-08-18T15:25:52.168Z,2.25
2022-08-18T15:28:23.760Z,2.25
2022-08-18T15:31:16.525Z,2.50
2022-08-18T15:33:40.308Z,2.40
2022-08-18T15:36:10.323Z,1.88
2022-08-18T15:38:43.519Z,2.72
2022-08-18T15:41:26.870Z,2.40
2022-08-18T15:43:54.417Z,2.45
2022-08-18T15:46:24.342Z,2.10
2022-08-18T15:48:53.549Z,2.30
2022-08-18T15:51:20.721Z,2.30
2022-08-18T15:53:47.974Z,2.72
2022-08-18T15:56:23.030Z,2.47
2022-08-18T15:58:53.411Z,2.47
2022-08-18T16:01:30.169Z,2.33
2022-08-18T16:04:01.245Z,2.85
2022-08-18T16:06:32.436Z,3.67
2022-08-18T16:09:01.547Z,2.80
2022-08-18T16:11:29.935Z,3.08
2022-08-18T16:14:01.733Z,3.58
2022-08-18T16:16:36.221Z,3.33
2022-08-18T16:19:07.051Z,3.72
2022-08-18T16:21:37.896Z,2.65
2022-08-18T16:24:05.810Z,2.35
2022-08-18T16:26:32.879Z,2.55
2022-08-18T16:29:01.765Z,2.60
2022-08-18T16:31:29.820Z,2.15
2022-08-18T16:33:58.362Z,2.17
2022-08-18T16:36:26.461Z,1.90
2022-08-18T16:38:58.167Z,2.38
2022-08-18T16:41:31.964Z,2.08
2022-08-18T16:44:02.239Z,2.65
2022-08-18T16:46:29.562Z,2.42
2022-08-18T16:48:58.959Z,2.13
2022-08-18T16:51:28.573Z,2.90
2022-08-18T16:53:56.052Z,2.55
2022-08-18T16:56:27.718Z,2.50
2022-08-18T16:59:13.940Z,3.00
2022-08-18T17:02:00.580Z,3.03
2022-08-18T17:04:35.120Z,2.65
2022-08-18T17:07:05.772Z,2.45
2022-08-18T17:09:34.775Z,2.85
2022-08-18T17:12:02.540Z,2.78
2022-08-18T17:14:31.936Z,3.95
2022-08-18T17:17:00.595Z,2.50
2022-08-18T17:19:33.201Z,2.80
2022-08-18T17:22:05.287Z,3.05
2022-08-18T17:24:32.948Z,3.50
2022-08-18T17:27:29.942Z,2.75
2022-08-18T17:30:18.746Z,2.85
2022-08-18T17:32:54.852Z,2.20
2022-08-18T17:35:32.827Z,2.60
2022-08-18T17:38:32.630Z,3.13
2022-08-18T17:41:00.999Z,3.33
2022-08-18T17:46:27.556Z,2.53
2022-08-18T17:50:26.283Z,2.33
2022-08-18T17:52:54.224Z,2.28
2022-08-18T17:55:31.285Z,2.28
2022-08-18T17:58:07.152Z,2.47
2022-08-18T18:00:34.390Z,3.08
2022-08-18T18:03:01.615Z,3.58
2022-08-18T18:05:39.048Z,2.97
2022-08-18T18:08:06.583Z,3.00
2022-08-18T18:11:04.473Z,2.75
2022-08-18T18:13:32.845Z,2.72
2022-08-18T18:16:20.941Z,2.20
2022-08-18T18:18:59.973Z,2.17
2022-08-18T18:21:57.644Z,2.10
2022-08-18T18:24:20.658Z,2.33
2022-08-18T18:26:52.083Z,2.58
2022-08-18T18:29:37.692Z,2.00
2022-08-18T18:32:17.319Z,2.08
2022-08-18T18:35:00.752Z,2.92
2022-08-18T18:37:33.166Z,2.78
2022-08-18T18:40:08.196Z,1.92
2022-08-18T18:42:36.640Z,1.90
2022-08-18T18:45:09.559Z,1.80
2022-08-18T18:48:48.239Z,1.85
2022-08-18T18:51:11.951Z,1.55
2022-08-18T18:54:17.165Z,1.30
2022-08-18T18:56:54.603Z,2.22
2022-08-18T18:59:40.640Z,1.88
2022-08-18T19:02:33.848Z,2.00
2022-08-18T19:05:23.566Z,1.77
2022-08-18T19:08:16.045Z,2.92
2022-08-18T19:11:00.432Z,2.00
2022-08-18T19:13:57.943Z,2.08
2022-08-18T19:16:35.548Z,2.28
2022-08-18T19:19:35.696Z,2.20
2022-08-18T19:22:49.867Z,2.10
2022-08-18T19:25:34.635Z,2.10
2022-08-18T19:29:13.025Z,2.20
2022-08-18T19:32:13.461Z,2.28
2022-08-18T19:34:52.499Z,2.38
2022-08-18T19:37:31.445Z,2.10
2022-08-18T19:40:27.398Z,2.10
2022-08-18T19:42:58.409Z,1.67
2022-08-18T19:45:53.516Z,2.38
2022-08-18T19:48:40.674Z,1.95
2022-08-18T19:51:29.862Z,2.10
2022-08-18T19:54:24.194Z,2.10
2022-08-18T19:57:41.980Z,1.70
2022-08-18T20:00:57.540Z,1.75
2022-08-18T20:03:29.693Z,2.53
2022-08-18T20:06:52.883Z,2.20
2022-08-18T20:09:35.675Z,2.30
2022-08-18T20:12:27.936Z,2.50
2022-08-18T20:15:21.703Z,2.65
2022-08-18T20:17:57.301Z,2.50
2022-08-18T20:20:32.797Z,2.30
2022-08-18T20:23:01.335Z,2.35
2022-08-18T20:25:41.902Z,2.33
2022-08-18T20:28:12.773Z,2.97
2022-08-18T20:31:04.924Z,2.70
2022-08-18T20:33:43.274Z,2.33
2022-08-18T20:36:32.445Z,2.42
2022-08-18T20:39:20.923Z,2.47
2022-08-18T20:41:50.537Z,2.45
2022-08-18T20:44:50.813Z,2.95
2022-08-18T20:47:46.576Z,2.20
2022-08-18T20:50:45.023Z,2.63
2022-08-18T20:53:39.940Z,2.75
2022-08-18T20:56:46.512Z,2.90
2022-08-18T20:59:56.223Z,2.30
2022-08-18T21:02:31.588Z,2.60
2022-08-18T21:05:01.099Z,2.35
2022-08-18T21:07:38.366Z,2.00
2022-08-18T21:10:22.709Z,2.67
2022-08-18T21:12:57.922Z,1.90
2022-08-18T21:15:38.182Z,2.50
2022-08-18T21:18:17.490Z,2.70
2022-08-18T21:20:54.241Z,2.35
2022-08-18T21:23:33.841Z,2.80
2022-08-18T21:26:14.499Z,2.22
2022-08-18T21:28:47.975Z,2.28
2022-08-18T21:31:44.046Z,1.98
2022-08-18T21:34:33.677Z,2.63
2022-08-18T21:37:10.574Z,2.13
2022-08-18T21:39:58.228Z,2.08
2022-08-18T21:42:44.932Z,2.03
2022-08-18T21:45:22.501Z,1.98
2022-08-18T21:47:58.158Z,1.90
2022-08-18T21:50:34.397Z,2.33
2022-08-18T21:53:18.028Z,1.70
2022-08-18T21:55:51.285Z,2.30
2022-08-18T21:58:36.416Z,2.20
2022-08-18T22:01:26.110Z,3.25
2022-08-18T22:03:59.587Z,2.65
2022-08-18T22:06:32.839Z,2.30
2022-08-18T22:09:30.509Z,1.90
2022-08-18T22:12:33.999Z,2.50
2022-08-18T22:15:23.061Z,1.85
2022-08-18T22:18:05.954Z,1.95
2022-08-18T22:20:54.116Z,2.00
2022-08-18T22:24:05.268Z,1.83
2022-08-18T22:26:38.250Z,2.00
2022-08-18T22:29:34.737Z,2.17
2022-08-18T22:32:03.508Z,2.25
2022-08-18T22:34:34.479Z,2.38
2022-08-18T22:37:14.451Z,1.90
2022-08-18T22:39:51.402Z,2.40
2022-08-18T22:42:29.394Z,2.22
2022-08-18T22:45:00.256Z,2.43
2022-08-18T22:47:31.498Z,2.85
2022-08-18T22:50:13.970Z,1.92
2022-08-18T22:52:46.610Z,2.30
2022-08-18T22:55:22.008Z,2.55
2022-08-18T22:57:57.105Z,2.90
2022-08-18T23:00:25.489Z,1.98
2022-08-18T23:02:54.208Z,2.80
2022-08-18T23:05:22.022Z,2.25
2022-08-18T23:07:49.904Z,2.58
2022-08-18T23:10:17.263Z,2.03
2022-08-18T23:12:46.982Z,2.00
2022-08-18T23:15:16.830Z,1.77
2022-08-18T23:17:44.271Z,2.30
2022-08-18T23:20:20.760Z,2.30
2022-08-18T23:22:53.843Z,2.00
2022-08-18T23:25:20.987Z,2.50
2022-08-18T23:27:48.032Z,2.22
2022-08-18T23:30:15.580Z,3.13
2022-08-18T23:32:43.605Z,1.98
2022-08-18T23:35:10.969Z,1.85
2022-08-18T23:37:42.167Z,2.10
2022-08-18T23:40:15.618Z,1.92
2022-08-18T23:42:46.569Z,2.00
2022-08-18T23:45:15.162Z,2.28
2022-08-18T23:47:43.418Z,2.28
2022-08-18T23:50:11.491Z,1.83
2022-08-18T23:52:39.807Z,2.42
2022-08-18T23:55:14.061Z,2.25
2022-08-18T23:57:41.232Z,2.10
